Time;durP1;ratioP1;P1;durP2;ratioP2;P2;SDS_P1;SDS_P2;PMS_P1;PMS_P2;Temp;Humidity;BMP_temperature;BMP_pressure;BME280_temperature;BME280_humidity;BME280_pressure;Samples;Min_cycle;Max_cycle;Signal;HPM_P1;HPM_P2
2022/05/03 00:00:45;;;;;;;10.63;7.67;;;;;;;;;;5071294;28;20406;-56
2022/05/03 00:03:19;;;;;;;12.53;8.80;;;;;;;;;;5070903;28;20511;-56
2022/05/03 00:05:53;;;;;;;8.60;7.50;;;;;;;;;;5071419;28;20526;-56
2022/05/03 00:08:28;;;;;;;8.90;7.63;;;;;;;;;;5071173;28;20487;-56
2022/05/03 00:11:01;;;;;;;9.63;8.40;;;;;;;;;;5070604;28;21084;-57
2022/05/03 00:13:29;;;;;;;21.43;7.80;;;;;;;;;;5071217;28;20423;-56
2022/05/03 00:15:57;;;;;;;8.87;8.07;;;;;;;;;;5073108;28;20409;-57
2022/05/03 00:18:24;;;;;;;12.43;8.10;;;;;;;;;;5074326;28;20401;-57
2022/05/03 00:20:50;;;;;;;11.10;7.63;;;;;;;;;;5073796;28;20405;-56
2022/05/03 00:23:17;;;;;;;8.83;7.70;;;;;;;;;;5073649;28;20420;-56
2022/05/03 00:25:43;;;;;;;9.00;8.10;;;;;;;;;;5074833;28;20495;-56
2022/05/03 00:28:10;;;;;;;9.80;8.20;;;;;;;;;;5074413;28;20433;-56
2022/05/03 00:30:36;;;;;;;10.00;8.50;;;;;;;;;;5074774;28;20799;-52
2022/05/03 00:33:07;;;;;;;11.80;7.73;;;;;;;;;;5074156;28;21092;-52
2022/05/03 00:35:33;;;;;;;9.13;7.30;;;;;;;;;;5074786;28;20880;-55
2022/05/03 00:37:59;;;;;;;11.67;8.70;;;;;;;;;;5074649;28;20409;-52
2022/05/03 00:40:25;;;;;;;9.90;7.30;;;;;;;;;;5074550;28;20409;-54
2022/05/03 00:43:10;;;;;;;7.60;6.77;;;;;;;;;;5073861;28;20477;-53
2022/05/03 00:45:43;;;;;;;11.30;7.33;;;;;;;;;;5074687;28;20401;-54
2022/05/03 00:48:12;;;;;;;8.10;7.33;;;;;;;;;;5074498;28;20900;-52
2022/05/03 00:50:40;;;;;;;7.87;7.00;;;;;;;;;;5074193;28;20924;-55
2022/05/03 00:53:09;;;;;;;15.80;7.57;;;;;;;;;;5073607;28;20444;-55
2022/05/03 00:55:40;;;;;;;7.33;6.50;;;;;;;;;;5074267;28;20396;-52
2022/05/03 00:58:09;;;;;;;8.80;7.40;;;;;;;;;;5074347;28;20401;-52
2022/05/03 01:00:40;;;;;;;7.83;6.10;;;;;;;;;;5074125;28;20884;-53
2022/05/03 01:03:19;;;;;;;9.30;7.77;;;;;;;;;;5072893;28;20416;-52
2022/05/03 01:05:48;;;;;;;8.07;6.70;;;;;;;;;;5073691;28;20405;-53
2022/05/03 01:08:32;;;;;;;9.90;7.30;;;;;;;;;;5073940;28;20420;-52
2022/05/03 01:11:09;;;;;;;9.73;6.80;;;;;;;;;;5073431;28;20513;-52
2022/05/03 01:13:35;;;;;;;10.87;6.93;;;;;;;;;;5074094;28;20423;-52
2022/05/03 01:16:16;;;;;;;9.60;7.17;;;;;;;;;;5073888;28;20400;-52
2022/05/03 01:18:56;;;;;;;8.13;6.87;;;;;;;;;;5073863;28;20405;-53
2022/05/03 01:21:22;;;;;;;7.30;6.57;;;;;;;;;;5073222;28;20888;-54
2022/05/03 01:23:50;;;;;;;8.40;6.83;;;;;;;;;;5073807;28;20428;-55
2022/05/03 01:26:19;;;;;;;9.70;7.50;;;;;;;;;;5073562;28;20400;-54
2022/05/03 01:29:04;;;;;;;8.90;7.07;;;;;;;;;;5073151;28;20773;-54
2022/05/03 01:31:30;;;;;;;9.63;7.87;;;;;;;;;;5073054;28;20413;-52
2022/05/03 01:34:00;;;;;;;7.53;6.40;;;;;;;;;;5073550;28;20412;-52
2022/05/03 01:36:45;;;;;;;25.53;7.30;;;;;;;;;;5073383;28;20872;-52
2022/05/03 01:39:14;;;;;;;7.83;7.13;;;;;;;;;;5073349;28;20387;-52
2022/05/03 01:41:47;;;;;;;7.10;6.33;;;;;;;;;;5072953;28;20739;-54
2022/05/03 01:44:36;;;;;;;8.00;6.50;;;;;;;;;;5073406;28;20392;-52
2022/05/03 01:47:14;;;;;;;9.37;6.80;;;;;;;;;;5070291;28;20530;-54
2022/05/03 01:52:50;;;;;;;10.33;7.10;;;;;;;;;;5072381;28;20427;-52
2022/05/03 01:55:31;;;;;;;8.57;7.67;;;;;;;;;;5073302;28;20413;-52
2022/05/03 01:58:03;;;;;;;11.63;7.40;;;;;;;;;;5073067;28;20487;-54
2022/05/03 02:00:32;;;;;;;11.07;7.07;;;;;;;;;;5073171;28;20412;-53
2022/05/03 02:03:03;;;;;;;8.00;6.80;;;;;;;;;;5072359;28;20506;-52
2022/05/03 02:05:35;;;;;;;11.93;8.30;;;;;;;;;;5073022;28;20428;-52
2022/05/03 02:08:01;;;;;;;10.23;8.03;;;;;;;;;;5072901;28;20408;-52
2022/05/03 02:10:36;;;;;;;8.60;7.30;;;;;;;;;;5072803;28;20456;-52
2022/05/03 02:13:07;;;;;;;10.63;7.90;;;;;;;;;;5072158;28;20835;-53
2022/05/03 02:15:33;;;;;;;7.80;6.90;;;;;;;;;;5072806;28;20407;-52
2022/05/03 02:18:11;;;;;;;11.07;7.20;;;;;;;;;;5072810;28;20430;-52
2022/05/03 02:20:55;;;;;;;7.80;7.00;;;;;;;;;;5072557;28;20400;-52
2022/05/03 02:23:30;;;;;;;10.90;7.00;;;;;;;;;;5072494;28;20519;-52
2022/05/03 02:25:57;;;;;;;8.80;7.47;;;;;;;;;;5072634;28;20404;-52
2022/05/03 02:28:24;;;;;;;10.07;8.13;;;;;;;;;;5072585;28;20405;-52
2022/05/03 02:30:51;;;;;;;8.53;6.80;;;;;;;;;;5071835;28;20452;-54
2022/05/03 02:33:23;;;;;;;8.77;6.83;;;;;;;;;;5072315;28;20878;-52
2022/05/03 02:35:51;;;;;;;8.10;6.70;;;;;;;;;;5072556;28;20404;-52
2022/05/03 02:38:31;;;;;;;9.97;7.27;;;;;;;;;;5072251;28;20405;-52
2022/05/03 02:40:59;;;;;;;7.10;6.33;;;;;;;;;;5071727;28;20404;-52
2022/05/03 02:43:25;;;;;;;8.73;6.77;;;;;;;;;;5072241;28;20421;-52
2022/05/03 02:45:57;;;;;;;7.70;7.00;;;;;;;;;;5072297;28;20407;-52
2022/05/03 02:48:30;;;;;;;8.60;6.33;;;;;;;;;;5072194;28;20904;-52
2022/05/03 02:51:02;;;;;;;7.80;6.53;;;;;;;;;;5071467;28;20447;-52
2022/05/03 02:53:33;;;;;;;9.77;6.60;;;;;;;;;;5072054;28;20873;-52
2022/05/03 02:56:01;;;;;;;10.10;6.87;;;;;;;;;;5072224;28;20392;-52
2022/05/03 02:58:33;;;;;;;7.57;6.63;;;;;;;;;;5071996;28;20388;-54
2022/05/03 03:04:03;;;;;;;7.33;6.57;;;;;;;;;;5072199;28;20495;-52
2022/05/03 03:06:33;;;;;;;14.83;7.10;;;;;;;;;;5071942;28;20424;-52
2022/05/03 03:09:01;;;;;;;10.03;6.40;;;;;;;;;;5072110;28;20481;-54
2022/05/03 03:11:46;;;;;;;8.40;7.00;;;;;;;;;;5071293;28;20406;-52
2022/05/03 03:14:24;;;;;;;7.27;5.93;;;;;;;;;;5071971;28;20494;-52
2022/05/03 03:16:54;;;;;;;11.50;7.03;;;;;;;;;;5071880;28;20405;-53
2022/05/03 03:19:33;;;;;;;9.27;6.60;;;;;;;;;;5071973;28;20398;-52
2022/05/03 03:22:04;;;;;;;7.60;6.23;;;;;;;;;;5071106;28;20392;-52
2022/05/03 03:24:32;;;;;;;12.20;7.30;;;;;;;;;;5071832;28;20841;-52
2022/05/03 03:27:03;;;;;;;8.43;6.80;;;;;;;;;;5071865;28;20400;-52
2022/05/03 03:29:30;;;;;;;7.30;6.50;;;;;;;;;;5071611;28;20439;-52
2022/05/03 03:31:58;;;;;;;7.67;6.60;;;;;;;;;;5071019;28;20408;-52
2022/05/03 03:34:24;;;;;;;7.43;6.63;;;;;;;;;;5071652;28;20461;-54
2022/05/03 03:36:53;;;;;;;22.63;6.73;;;;;;;;;;5071673;28;20404;-52
2022/05/03 03:39:19;;;;;;;9.00;7.10;;;;;;;;;;5071630;28;20407;-52
2022/05/03 03:41:47;;;;;;;7.53;5.90;;;;;;;;;;5070895;28;20898;-53
2022/05/03 03:44:13;;;;;;;6.73;6.03;;;;;;;;;;5071649;28;20483;-52
2022/05/03 03:46:40;;;;;;;8.37;6.10;;;;;;;;;;5071742;28;20401;-52
2022/05/03 03:49:07;;;;;;;9.10;7.13;;;;;;;;;;5071448;28;20397;-52
2022/05/03 03:51:33;;;;;;;13.50;6.40;;;;;;;;;;5073736;28;20423;-52
2022/05/03 03:53:59;;;;;;;10.20;6.23;;;;;;;;;;5075491;28;20433;-52
2022/05/03 03:56:27;;;;;;;10.13;5.90;;;;;;;;;;5075542;28;20401;-52
2022/05/03 03:58:53;;;;;;;7.20;6.10;;;;;;;;;;5075381;28;20805;-52
2022/05/03 04:01:19;;;;;;;6.57;5.73;;;;;;;;;;5074743;28;20953;-52
2022/05/03 04:03:46;;;;;;;6.03;5.50;;;;;;;;;;5075231;28;20433;-52
2022/05/03 04:06:12;;;;;;;6.73;6.03;;;;;;;;;;5075350;28;20455;-52
2022/05/03 04:08:38;;;;;;;10.03;6.20;;;;;;;;;;5075136;28;20406;-52
2022/05/03 04:11:15;;;;;;;7.40;6.17;;;;;;;;;;5074591;28;21525;-52
2022/05/03 04:13:41;;;;;;;6.50;5.80;;;;;;;;;;5075058;28;20790;-53
2022/05/03 04:16:08;;;;;;;7.40;5.70;;;;;;;;;;5075251;28;20412;-54
2022/05/03 04:18:56;;;;;;;7.20;6.30;;;;;;;;;;5074920;28;20495;-52
2022/05/03 04:21:21;;;;;;;8.60;5.70;;;;;;;;;;5074183;28;20417;-52
2022/05/03 04:23:48;;;;;;;5.73;5.23;;;;;;;;;;5075194;28;20425;-52
2022/05/03 04:26:14;;;;;;;6.53;5.83;;;;;;;;;;5074917;28;20443;-54
2022/05/03 04:28:40;;;;;;;11.97;5.90;;;;;;;;;;5074763;28;20403;-52
2022/05/03 04:31:06;;;;;;;8.20;7.10;;;;;;;;;;5073995;28;20967;-52
2022/05/03 04:33:32;;;;;;;6.60;5.70;;;;;;;;;;5074287;28;20946;-53
2022/05/03 04:35:58;;;;;;;7.17;5.97;;;;;;;;;;5074672;28;20426;-54
2022/05/03 04:38:24;;;;;;;7.07;5.87;;;;;;;;;;5074547;28;20885;-52
2022/05/03 04:40:50;;;;;;;6.60;5.80;;;;;;;;;;5074197;28;20413;-51
2022/05/03 04:43:16;;;;;;;7.07;6.37;;;;;;;;;;5074522;28;20937;-52
2022/05/03 04:45:42;;;;;;;6.80;5.67;;;;;;;;;;5074512;28;20485;-52
2022/05/03 04:48:09;;;;;;;6.40;5.80;;;;;;;;;;5074542;28;20410;-52
2022/05/03 04:50:35;;;;;;;7.23;5.87;;;;;;;;;;5074206;28;20443;-52
2022/05/03 04:53:01;;;;;;;7.70;6.90;;;;;;;;;;5073701;28;20513;-52
2022/05/03 04:55:27;;;;;;;8.40;5.90;;;;;;;;;;5074417;28;20890;-52
2022/05/03 04:57:54;;;;;;;6.87;5.73;;;;;;;;;;5074701;28;20403;-52
2022/05/03 05:00:20;;;;;;;10.03;6.90;;;;;;;;;;5074270;28;20424;-52
2022/05/03 05:02:46;;;;;;;12.37;11.07;;;;;;;;;;5072349;28;20441;-52
2022/05/03 05:05:12;;;;;;;12.33;11.03;;;;;;;;;;5074139;28;20405;-52
2022/05/03 05:07:38;;;;;;;11.13;9.67;;;;;;;;;;5074225;28;20406;-52
2022/05/03 05:12:48;;;;;;;7.90;7.10;;;;;;;;;;5073423;28;20492;-52
2022/05/03 05:15:14;;;;;;;8.80;7.20;;;;;;;;;;5074095;28;20856;-52
2022/05/03 05:17:40;;;;;;;11.80;7.33;;;;;;;;;;5073899;28;20442;-52
2022/05/03 05:20:07;;;;;;;8.03;6.87;;;;;;;;;;5073926;28;20464;-51
2022/05/03 05:22:33;;;;;;;7.23;6.53;;;;;;;;;;5073266;28;20443;-52
2022/05/03 05:24:58;;;;;;;7.97;6.43;;;;;;;;;;5073825;28;20411;-52
2022/05/03 05:27:24;;;;;;;7.63;6.87;;;;;;;;;;5073860;28;20432;-52
2022/05/03 05:29:55;;;;;;;9.10;7.50;;;;;;;;;;5073530;28;20458;-54
2022/05/03 05:32:21;;;;;;;6.77;6.00;;;;;;;;;;5072857;28;20557;-54
2022/05/03 05:34:47;;;;;;;8.40;7.03;;;;;;;;;;5072382;28;20894;-54
2022/05/03 05:37:13;;;;;;;7.70;6.90;;;;;;;;;;5073780;28;20397;-52
2022/05/03 05:39:38;;;;;;;7.27;6.37;;;;;;;;;;5073414;28;20412;-52
2022/05/03 05:42:04;;;;;;;7.13;6.10;;;;;;;;;;5072932;28;20408;-52
2022/05/03 05:44:31;;;;;;;9.07;6.60;;;;;;;;;;5073477;28;20407;-53
2022/05/03 05:46:57;;;;;;;10.40;7.27;;;;;;;;;;5073336;28;20407;-52
2022/05/03 05:49:24;;;;;;;8.60;6.30;;;;;;;;;;5072558;28;20419;-52
2022/05/03 05:51:50;;;;;;;7.60;6.63;;;;;;;;;;5072528;28;20904;-52
2022/05/03 05:54:16;;;;;;;6.87;6.17;;;;;;;;;;5073235;28;20428;-54
2022/05/03 05:56:48;;;;;;;8.17;6.80;;;;;;;;;;5072609;28;20440;-54
2022/05/03 05:59:15;;;;;;;7.67;6.00;;;;;;;;;;5073152;28;20407;-52
2022/05/03 06:01:41;;;;;;;7.17;6.53;;;;;;;;;;5071892;28;20409;-52
2022/05/03 06:07:11;;;;;;;7.07;6.23;;;;;;;;;;5071378;28;20402;-52
2022/05/03 06:09:37;;;;;;;13.03;7.40;;;;;;;;;;5071438;28;20825;-53
2022/05/03 06:12:03;;;;;;;8.73;5.90;;;;;;;;;;5070979;28;20412;-56
2022/05/03 06:14:30;;;;;;;7.50;6.20;;;;;;;;;;5066203;28;20413;-56
2022/05/03 06:16:58;;;;;;;8.00;5.87;;;;;;;;;;5072354;28;20397;-56
2022/05/03 06:19:24;;;;;;;7.50;6.30;;;;;;;;;;5072330;28;20487;-56
2022/05/03 06:21:50;;;;;;;8.40;6.70;;;;;;;;;;5071480;28;20450;-55
2022/05/03 06:24:16;;;;;;;10.33;6.67;;;;;;;;;;5072723;28;20673;-55
2022/05/03 06:26:42;;;;;;;9.37;6.03;;;;;;;;;;5072190;28;20443;-56
2022/05/03 06:29:09;;;;;;;8.37;6.70;;;;;;;;;;5072290;28;20522;-56
2022/05/03 06:31:35;;;;;;;14.80;6.50;;;;;;;;;;5071383;28;20459;-55
2022/05/03 06:34:01;;;;;;;8.70;5.47;;;;;;;;;;5072141;28;20417;-56
2022/05/03 06:36:27;;;;;;;7.40;5.70;;;;;;;;;;5071875;28;20404;-56
2022/05/03 06:38:53;;;;;;;6.93;5.93;;;;;;;;;;5071951;28;20396;-56
2022/05/03 06:41:19;;;;;;;10.77;7.00;;;;;;;;;;5071326;28;20404;-56
2022/05/03 06:43:45;;;;;;;9.70;7.10;;;;;;;;;;5071943;28;20789;-56
2022/05/03 06:46:11;;;;;;;7.30;6.30;;;;;;;;;;5071953;28;20470;-56
2022/05/03 06:48:38;;;;;;;9.97;6.73;;;;;;;;;;5071855;28;20413;-52
2022/05/03 06:51:05;;;;;;;8.50;5.77;;;;;;;;;;5070989;28;20871;-53
2022/05/03 06:53:31;;;;;;;6.50;5.67;;;;;;;;;;5072081;28;20478;-54
2022/05/03 06:55:57;;;;;;;7.07;5.80;;;;;;;;;;5071870;28;20397;-52
2022/05/03 06:58:23;;;;;;;8.83;5.87;;;;;;;;;;5071735;28;20767;-53
2022/05/03 07:00:49;;;;;;;9.43;5.97;;;;;;;;;;5071418;28;20405;-52
2022/05/03 07:03:17;;;;;;;8.77;5.93;;;;;;;;;;5071814;28;20810;-54
2022/05/03 07:05:43;;;;;;;8.53;6.27;;;;;;;;;;5071519;28;20412;-52
2022/05/03 07:08:10;;;;;;;8.83;6.50;;;;;;;;;;5071648;28;20436;-52
2022/05/03 07:10:36;;;;;;;5.93;5.43;;;;;;;;;;5071517;28;20527;-56
2022/05/03 07:13:02;;;;;;;9.23;5.50;;;;;;;;;;5069671;28;20983;-56
2022/05/03 07:15:30;;;;;;;7.90;5.47;;;;;;;;;;5071621;28;20406;-55
2022/05/03 07:23:26;;;;;;;8.13;4.93;;;;;;;;;;5051693;28;20428;-56
2022/05/03 07:25:53;;;;;;;6.57;5.23;;;;;;;;;;5050729;28;20405;-56
2022/05/03 07:28:19;;;;;;;10.10;5.00;;;;;;;;;;5051360;28;20699;-54
2022/05/03 07:30:45;;;;;;;5.93;4.80;;;;;;;;;;5063272;28;20543;-56
2022/05/03 07:33:11;;;;;;;16.53;5.77;;;;;;;;;;5070502;28;20483;-55
2022/05/03 07:35:36;;;;;;;7.03;4.50;;;;;;;;;;5071397;28;20474;-54
2022/05/03 07:38:02;;;;;;;5.30;4.73;;;;;;;;;;5071634;28;20390;-54
2022/05/03 07:40:28;;;;;;;7.10;4.60;;;;;;;;;;5071259;28;20413;-53
2022/05/03 07:42:54;;;;;;;8.53;5.07;;;;;;;;;;5070307;28;20427;-54
2022/05/03 07:45:20;;;;;;;5.10;4.70;;;;;;;;;;5071016;28;20490;-56
2022/05/03 07:47:47;;;;;;;5.20;4.73;;;;;;;;;;5070832;28;20405;-53
2022/05/03 07:50:13;;;;;;;6.33;4.87;;;;;;;;;;5070606;28;20473;-55
2022/05/03 07:52:39;;;;;;;6.90;4.77;;;;;;;;;;5069862;28;20417;-55
2022/05/03 07:55:07;;;;;;;5.63;4.20;;;;;;;;;;5063303;28;20465;-57
2022/05/03 07:57:33;;;;;;;5.13;4.63;;;;;;;;;;5050856;28;20873;-58
2022/05/03 07:59:59;;;;;;;5.37;4.67;;;;;;;;;;5050543;28;20951;-55
2022/05/03 08:02:25;;;;;;;7.57;5.33;;;;;;;;;;5050262;28;20774;-57
2022/05/03 08:04:54;;;;;;;5.23;4.73;;;;;;;;;;5050484;28;20477;-57
2022/05/03 08:07:21;;;;;;;5.43;4.87;;;;;;;;;;5056863;28;20785;-57
2022/05/03 08:09:48;;;;;;;5.00;4.47;;;;;;;;;;5070601;28;20536;-58
2022/05/03 08:12:14;;;;;;;5.33;4.77;;;;;;;;;;5070093;28;20423;-54
2022/05/03 08:14:40;;;;;;;7.43;4.53;;;;;;;;;;5070629;28;20482;-54
2022/05/03 08:17:07;;;;;;;4.57;4.17;;;;;;;;;;5070929;28;20912;-54
2022/05/03 08:19:33;;;;;;;4.57;4.10;;;;;;;;;;5069167;28;20476;-53
2022/05/03 08:21:59;;;;;;;4.23;3.87;;;;;;;;;;5069752;28;20401;-53
2022/05/03 08:24:25;;;;;;;11.60;4.50;;;;;;;;;;5070598;28;20842;-53
2022/05/03 08:26:51;;;;;;;3.90;3.60;;;;;;;;;;5070576;28;20474;-54
2022/05/03 08:29:18;;;;;;;4.97;3.63;;;;;;;;;;5070472;28;20484;-53
2022/05/03 08:31:44;;;;;;;3.60;3.27;;;;;;;;;;5068751;28;20494;-53
2022/05/03 08:34:10;;;;;;;3.87;3.57;;;;;;;;;;5070595;28;20969;-54
2022/05/03 08:36:36;;;;;;;4.93;4.43;;;;;;;;;;5071540;28;20408;-54
2022/05/03 08:42:06;;;;;;;4.27;3.87;;;;;;;;;;5073338;28;20492;-54
2022/05/03 08:44:33;;;;;;;4.40;3.90;;;;;;;;;;5074004;28;20925;-55
2022/05/03 08:46:59;;;;;;;7.10;3.70;;;;;;;;;;5073634;28;20746;-54
2022/05/03 08:49:34;;;;;;;4.40;3.93;;;;;;;;;;5074158;28;20412;-57
2022/05/03 08:52:03;;;;;;;4.30;3.73;;;;;;;;;;5073223;28;20436;-55
2022/05/03 08:54:29;;;;;;;3.93;3.53;;;;;;;;;;5073165;28;20423;-55
2022/05/03 08:56:56;;;;;;;4.17;3.43;;;;;;;;;;5072965;28;20422;-56
2022/05/03 08:59:23;;;;;;;4.33;3.00;;;;;;;;;;5053021;28;20402;-56
2022/05/03 09:01:49;;;;;;;2.97;2.70;;;;;;;;;;5067961;28;20415;-54
2022/05/03 09:04:15;;;;;;;7.47;2.50;;;;;;;;;;5073714;28;20491;-54
2022/05/03 09:06:45;;;;;;;4.67;2.90;;;;;;;;;;5073566;28;20429;-54
2022/05/03 09:09:12;;;;;;;2.80;2.60;;;;;;;;;;5073131;28;20434;-54
2022/05/03 09:11:46;;;;;;;4.50;2.73;;;;;;;;;;5072886;28;20463;-56
2022/05/03 09:14:12;;;;;;;7.23;2.50;;;;;;;;;;5073353;28;20436;-56
2022/05/03 09:16:49;;;;;;;5.50;2.70;;;;;;;;;;5073436;28;20413;-56
2022/05/03 09:19:25;;;;;;;2.67;2.47;;;;;;;;;;5073466;28;20780;-55
2022/05/03 09:25:11;;;;;;;1.97;1.87;;;;;;;;;;5073511;28;20468;-57
2022/05/03 09:27:37;;;;;;;2.93;1.73;;;;;;;;;;5050288;28;20413;-54
2022/05/03 09:30:10;;;;;;;2.03;1.83;;;;;;;;;;5068673;28;20464;-54
2022/05/03 09:32:42;;;;;;;2.77;1.77;;;;;;;;;;5052733;28;20428;-54
2022/05/03 09:35:27;;;;;;;2.13;1.93;;;;;;;;;;5070549;28;20515;-54
2022/05/03 09:37:53;;;;;;;2.10;1.83;;;;;;;;;;5072931;28;20464;-55
2022/05/03 09:40:19;;;;;;;3.57;2.10;;;;;;;;;;5072840;28;20414;-54
2022/05/03 09:42:54;;;;;;;2.20;2.00;;;;;;;;;;5071827;28;20513;-54
2022/05/03 09:45:24;;;;;;;2.50;2.00;;;;;;;;;;5072805;28;20415;-55
2022/05/03 09:47:55;;;;;;;6.87;1.70;;;;;;;;;;5072321;28;20798;-54
2022/05/03 09:50:31;;;;;;;1.90;1.70;;;;;;;;;;5072604;28;20629;-54
2022/05/03 09:52:57;;;;;;;4.73;2.27;;;;;;;;;;5062337;28;20528;-54
2022/05/03 09:55:30;;;;;;;2.53;2.33;;;;;;;;;;5073114;28;20431;-56
2022/05/03 09:58:00;;;;;;;2.90;1.80;;;;;;;;;;5072769;28;20428;-54
2022/05/03 10:00:26;;;;;;;4.10;2.97;;;;;;;;;;5072527;28;20469;-54
2022/05/03 10:02:53;;;;;;;2.30;2.10;;;;;;;;;;5072130;28;20462;-54
2022/05/03 10:05:21;;;;;;;2.33;1.83;;;;;;;;;;5072181;28;20419;-54
2022/05/03 10:07:48;;;;;;;3.53;2.83;;;;;;;;;;5072499;28;20510;-55
2022/05/03 10:10:16;;;;;;;3.67;3.37;;;;;;;;;;5072398;28;20463;-54
2022/05/03 10:12:45;;;;;;;2.77;2.57;;;;;;;;;;5071781;28;20440;-54
2022/05/03 10:15:11;;;;;;;3.30;3.07;;;;;;;;;;5071929;28;21009;-55
2022/05/03 10:20:42;;;;;;;2.60;2.40;;;;;;;;;;5058293;28;20455;-54
2022/05/03 10:23:19;;;;;;;3.83;3.40;;;;;;;;;;5071742;28;20527;-56
2022/05/03 10:25:45;;;;;;;3.03;2.83;;;;;;;;;;5071922;28;20410;-54
2022/05/03 10:28:11;;;;;;;3.80;3.37;;;;;;;;;;5072204;28;20392;-54
2022/05/03 10:30:40;;;;;;;4.30;3.60;;;;;;;;;;5072117;28;20491;-54
2022/05/03 10:33:21;;;;;;;3.73;3.40;;;;;;;;;;5071943;28;20430;-54
2022/05/03 10:35:47;;;;;;;3.73;3.13;;;;;;;;;;5058535;28;20486;-54
2022/05/03 10:38:13;;;;;;;5.90;3.97;;;;;;;;;;5069704;28;20424;-56
2022/05/03 10:40:44;;;;;;;4.40;4.00;;;;;;;;;;5066780;28;20810;-57
2022/05/03 10:43:12;;;;;;;8.40;3.40;;;;;;;;;;5071815;28;20426;-55
2022/05/03 10:45:56;;;;;;;4.37;3.97;;;;;;;;;;5071757;28;20411;-54
2022/05/03 10:48:29;;;;;;;5.27;4.80;;;;;;;;;;5071605;28;20993;-54
2022/05/03 10:51:00;;;;;;;4.13;3.83;;;;;;;;;;5070735;28;20505;-55
2022/05/03 10:53:27;;;;;;;4.17;3.83;;;;;;;;;;5064257;28;20453;-54
2022/05/03 10:56:02;;;;;;;5.40;4.47;;;;;;;;;;5071855;28;20487;-54
2022/05/03 10:58:32;;;;;;;5.00;4.60;;;;;;;;;;5071788;28;20398;-54
2022/05/03 11:01:09;;;;;;;5.17;4.70;;;;;;;;;;5070331;28;20409;-55
2022/05/03 11:03:39;;;;;;;5.13;4.63;;;;;;;;;;5071614;28;20420;-56
2022/05/03 11:06:23;;;;;;;4.60;3.80;;;;;;;;;;5071804;28;20763;-55
2022/05/03 11:11:42;;;;;;;5.60;4.73;;;;;;;;;;5071069;28;20460;-54
2022/05/03 11:14:18;;;;;;;4.80;4.40;;;;;;;;;;5071698;28;20531;-55
2022/05/03 11:16:44;;;;;;;6.90;4.90;;;;;;;;;;5071723;28;20412;-55
2022/05/03 11:19:11;;;;;;;4.80;4.40;;;;;;;;;;5071708;28;20894;-56
2022/05/03 11:21:37;;;;;;;4.40;4.00;;;;;;;;;;5070593;28;20446;-55
2022/05/03 11:24:03;;;;;;;6.40;3.90;;;;;;;;;;5071238;28;20436;-56
2022/05/03 11:26:29;;;;;;;5.50;5.00;;;;;;;;;;5070843;28;20412;-56
2022/05/03 11:28:59;;;;;;;4.00;3.60;;;;;;;;;;5071234;28;20412;-57
2022/05/03 11:31:26;;;;;;;4.50;4.10;;;;;;;;;;5070811;28;20499;-56
2022/05/03 11:33:53;;;;;;;5.00;3.60;;;;;;;;;;5071244;28;20493;-54
2022/05/03 11:36:20;;;;;;;4.23;3.83;;;;;;;;;;5071360;28;20471;-55
2022/05/03 11:38:49;;;;;;;5.00;4.27;;;;;;;;;;5071467;28;20915;-57
2022/05/03 11:41:16;;;;;;;6.27;4.63;;;;;;;;;;5070788;28;20416;-55
2022/05/03 11:43:42;;;;;;;5.67;3.80;;;;;;;;;;5071446;28;20514;-53
2022/05/03 11:46:08;;;;;;;7.80;3.90;;;;;;;;;;5070565;28;20950;-54
2022/05/03 11:48:41;;;;;;;3.60;3.27;;;;;;;;;;5071063;28;20424;-54
2022/05/03 11:56:38;;;;;;;7.00;4.83;;;;;;;;;;5070905;28;20967;-57
2022/05/03 11:59:05;;;;;;;4.47;3.87;;;;;;;;;;5071224;28;20412;-57
2022/05/03 12:01:34;;;;;;;6.10;4.67;;;;;;;;;;5069689;28;20846;-56
2022/05/03 12:04:02;;;;;;;6.23;4.50;;;;;;;;;;5071091;28;20939;-56
2022/05/03 12:06:42;;;;;;;6.53;3.60;;;;;;;;;;5070822;28;20424;-56
2022/05/03 12:09:10;;;;;;;4.93;4.60;;;;;;;;;;5070984;28;20988;-56
2022/05/03 12:12:42;;;;;;;5.43;4.27;;;;;;;;;;5071686;28;21001;-56
2022/05/03 12:14:34;;;;;;;6.93;4.80;;;;;;;;;;5074499;28;20471;-56
2022/05/03 12:17:01;;;;;;;4.50;4.10;;;;;;;;;;5074581;28;20419;-56
2022/05/03 12:19:32;;;;;;;3.93;3.63;;;;;;;;;;5074167;28;20432;-56
2022/05/03 12:22:07;;;;;;;5.77;4.70;;;;;;;;;;5074076;28;20412;-56
2022/05/03 12:24:37;;;;;;;4.93;4.37;;;;;;;;;;5074504;28;20408;-56
2022/05/03 12:27:13;;;;;;;5.10;4.70;;;;;;;;;;5074666;28;20823;-56
2022/05/03 12:29:46;;;;;;;6.93;4.40;;;;;;;;;;5074679;28;20438;-56
2022/05/03 12:32:16;;;;;;;4.97;4.47;;;;;;;;;;5073733;28;20440;-56
2022/05/03 12:34:55;;;;;;;4.40;3.67;;;;;;;;;;5074877;28;20939;-55
2022/05/03 12:37:21;;;;;;;5.77;4.03;;;;;;;;;;5074154;28;20498;-56
2022/05/03 12:39:47;;;;;;;5.37;3.80;;;;;;;;;;5074767;28;20408;-56
2022/05/03 12:42:15;;;;;;;7.03;4.30;;;;;;;;;;5073617;28;20444;-57
2022/05/03 12:44:57;;;;;;;5.13;4.60;;;;;;;;;;5074054;28;20424;-56
2022/05/03 12:47:26;;;;;;;4.93;4.53;;;;;;;;;;5064573;28;20919;-56
2022/05/03 12:49:52;;;;;;;6.20;5.60;;;;;;;;;;5074418;28;20444;-56
2022/05/03 12:52:18;;;;;;;4.90;4.50;;;;;;;;;;5073553;28;20451;-56
2022/05/03 12:54:48;;;;;;;6.40;5.40;;;;;;;;;;5074123;28;20401;-57
2022/05/03 13:00:00;;;;;;;4.40;4.00;;;;;;;;;;5072900;28;20470;-56
2022/05/03 13:02:26;;;;;;;6.10;4.87;;;;;;;;;;5072464;28;20787;-56
2022/05/03 13:04:53;;;;;;;5.80;5.23;;;;;;;;;;5072864;28;20408;-56
2022/05/03 13:07:19;;;;;;;10.33;5.47;;;;;;;;;;5073725;28;20424;-56
2022/05/03 13:09:45;;;;;;;5.10;4.70;;;;;;;;;;5074053;28;20409;-56
2022/05/03 13:12:11;;;;;;;8.57;4.80;;;;;;;;;;5073434;28;20605;-56
2022/05/03 13:14:38;;;;;;;6.13;5.33;;;;;;;;;;5073968;28;20407;-56
2022/05/03 13:17:04;;;;;;;6.47;4.80;;;;;;;;;;5089139;28;20413;-56
2022/05/03 13:19:33;;;;;;;4.90;4.47;;;;;;;;;;5071336;28;20507;-56
2022/05/03 13:22:00;;;;;;;5.20;4.80;;;;;;;;;;5071119;28;20447;-56
2022/05/03 13:24:26;;;;;;;5.17;4.63;;;;;;;;;;5070210;28;20448;-56
2022/05/03 13:26:53;;;;;;;5.80;5.30;;;;;;;;;;5064096;28;20488;-56
2022/05/03 13:29:19;;;;;;;5.43;4.70;;;;;;;;;;5071344;28;20418;-56
2022/05/03 13:31:46;;;;;;;5.97;5.27;;;;;;;;;;5073003;28;20765;-56
2022/05/03 13:34:12;;;;;;;5.43;4.93;;;;;;;;;;5072823;28;20963;-56
2022/05/03 13:42:09;;;;;;;7.13;4.37;;;;;;;;;;5072250;28;20786;-56
2022/05/03 13:44:35;;;;;;;3.93;3.63;;;;;;;;;;5073115;28;20412;-56
2022/05/03 13:47:02;;;;;;;3.57;3.30;;;;;;;;;;5072861;28;20797;-56
2022/05/03 13:49:28;;;;;;;6.57;3.90;;;;;;;;;;5072978;28;20487;-56
2022/05/03 13:51:54;;;;;;;5.80;4.00;;;;;;;;;;5071933;28;20853;-56
2022/05/03 13:54:20;;;;;;;4.13;3.83;;;;;;;;;;5072856;28;20401;-56
2022/05/03 13:56:46;;;;;;;5.47;4.30;;;;;;;;;;5072390;28;20424;-56
2022/05/03 13:59:12;;;;;;;6.47;4.20;;;;;;;;;;5072791;28;20819;-56
2022/05/03 14:01:39;;;;;;;4.10;3.80;;;;;;;;;;5072091;28;20401;-56
2022/05/03 14:04:05;;;;;;;3.10;2.80;;;;;;;;;;5072667;28;20542;-56
2022/05/03 14:06:31;;;;;;;5.13;4.63;;;;;;;;;;5072844;28;20420;-56
2022/05/03 14:08:58;;;;;;;5.20;4.77;;;;;;;;;;5072562;28;20411;-56
2022/05/03 14:11:24;;;;;;;4.33;3.97;;;;;;;;;;5071644;28;20509;-56
2022/05/03 14:13:50;;;;;;;4.03;3.73;;;;;;;;;;5072613;28;20444;-56
2022/05/03 14:16:17;;;;;;;4.40;4.00;;;;;;;;;;5071576;28;20499;-56
2022/05/03 14:18:45;;;;;;;3.60;3.30;;;;;;;;;;5072324;28;20770;-56
2022/05/03 14:21:12;;;;;;;4.03;3.63;;;;;;;;;;5071630;28;20447;-56
2022/05/03 14:23:39;;;;;;;3.90;3.60;;;;;;;;;;5072193;28;20420;-56
2022/05/03 14:26:05;;;;;;;3.07;2.33;;;;;;;;;;5072122;28;20465;-56
2022/05/03 14:28:32;;;;;;;3.50;3.00;;;;;;;;;;5072354;28;20495;-57
2022/05/03 14:30:58;;;;;;;4.00;3.70;;;;;;;;;;5071300;28;20459;-56
2022/05/03 14:33:24;;;;;;;4.40;2.80;;;;;;;;;;5071892;28;20950;-56
2022/05/03 14:35:50;;;;;;;4.67;4.03;;;;;;;;;;5071293;28;20416;-57
2022/05/03 14:38:16;;;;;;;6.07;3.83;;;;;;;;;;5070243;28;20950;-57
2022/05/03 14:40:42;;;;;;;4.20;3.57;;;;;;;;;;5071873;28;20417;-56
2022/05/03 14:43:09;;;;;;;3.87;3.57;;;;;;;;;;5071511;28;20845;-57
2022/05/03 14:45:35;;;;;;;3.80;3.07;;;;;;;;;;5071796;28;20408;-56
2022/05/03 14:48:06;;;;;;;3.60;3.30;;;;;;;;;;5070648;28;20415;-56
2022/05/03 14:50:32;;;;;;;3.20;3.00;;;;;;;;;;5071331;28;20456;-57
2022/05/03 14:52:58;;;;;;;3.97;3.67;;;;;;;;;;5070064;28;20497;-56
2022/05/03 14:55:24;;;;;;;4.20;3.23;;;;;;;;;;5071604;28;20825;-56
2022/05/03 15:03:19;;;;;;;3.90;3.60;;;;;;;;;;5071478;28;20976;-56
2022/05/03 15:05:46;;;;;;;4.07;3.77;;;;;;;;;;5071540;28;20408;-56
2022/05/03 15:08:12;;;;;;;4.50;3.97;;;;;;;;;;5071800;28;20884;-56
2022/05/03 15:10:38;;;;;;;5.57;3.40;;;;;;;;;;5071590;28;20478;-56
2022/05/03 15:13:05;;;;;;;12.83;3.07;;;;;;;;;;5069791;28;21004;-57
2022/05/03 15:15:32;;;;;;;6.73;3.50;;;;;;;;;;5071257;28;20444;-56
2022/05/03 15:17:59;;;;;;;3.33;3.03;;;;;;;;;;5071483;28;20409;-56
2022/05/03 15:20:29;;;;;;;4.10;3.80;;;;;;;;;;5071246;28;20476;-57
2022/05/03 15:25:43;;;;;;;4.17;3.87;;;;;;;;;;5071890;28;20484;-56
2022/05/03 15:28:09;;;;;;;4.80;4.30;;;;;;;;;;5071342;28;20884;-56
2022/05/03 15:30:35;;;;;;;4.20;3.80;;;;;;;;;;5070767;28;20485;-56
2022/05/03 15:33:01;;;;;;;4.73;4.07;;;;;;;;;;5070926;28;20468;-56
2022/05/03 15:35:31;;;;;;;3.67;3.37;;;;;;;;;;5071628;28;20505;-56
2022/05/03 15:37:58;;;;;;;5.17;3.70;;;;;;;;;;5070961;28;20464;-56
2022/05/03 15:40:24;;;;;;;4.30;3.77;;;;;;;;;;5071447;28;20888;-56